createdAt,value
2023-05-11T00:03:34.120Z,98041.06
2023-05-11T00:08:36.304Z,98033.22
2023-05-11T00:13:38.165Z,98039.44
2023-05-11T00:18:40.128Z,98033.56
2023-05-11T00:23:42.027Z,98039.59
2023-05-11T00:28:45.431Z,98036.75
2023-05-11T00:33:47.395Z,98024.91
2023-05-11T00:38:50.211Z,98025.50
2023-05-11T00:43:52.134Z,98023.25
2023-05-11T00:48:54.403Z,98029.69
2023-05-11T00:53:56.336Z,98026.47
2023-05-11T00:58:58.451Z,98030.09
2023-05-11T01:04:00.546Z,98025.06
2023-05-11T01:09:29.046Z,98028.06
2023-05-11T01:14:37.631Z,98021.19
2023-05-11T01:19:48.798Z,98033.66
2023-05-11T01:25:14.051Z,98032.44
2023-05-11T01:30:41.906Z,98023.16
2023-05-11T01:35:51.006Z,98031.19
2023-05-11T01:40:57.594Z,98031.81
2023-05-11T01:46:02.266Z,98035.44
2023-05-11T01:51:05.879Z,98032.59
2023-05-11T01:56:09.537Z,98032.38
2023-05-11T02:01:12.706Z,98032.34
2023-05-11T02:06:18.117Z,98035.53
2023-05-11T02:11:23.954Z,98036.72
2023-05-11T02:16:30.111Z,98039.53
2023-05-11T02:21:33.127Z,98040.28
2023-05-11T02:26:35.329Z,98035.00
2023-05-11T02:31:44.191Z,98038.38
2023-05-11T02:36:53.669Z,98039.13
2023-05-11T02:42:01.088Z,98041.31
2023-05-11T02:47:06.567Z,98038.47
2023-05-11T02:52:11.662Z,98041.66
2023-05-11T02:57:19.746Z,98037.63
2023-05-11T03:02:22.378Z,98037.81
2023-05-11T03:07:24.442Z,98043.59
2023-05-11T03:12:31.585Z,98042.00
2023-05-11T03:17:36.055Z,98041.00
2023-05-11T03:22:39.539Z,98042.22
2023-05-11T03:27:44.048Z,98042.66
2023-05-11T03:32:46.567Z,98043.47
2023-05-11T03:37:51.582Z,98032.84
2023-05-11T03:42:55.733Z,98038.88
2023-05-11T03:48:00.472Z,98039.84
2023-05-11T03:53:03.476Z,98038.47
2023-05-11T03:58:09.937Z,98043.31
2023-05-11T04:03:12.654Z,98042.91
2023-05-11T04:08:15.484Z,98042.91
2023-05-11T04:13:17.397Z,98047.53
2023-05-11T04:18:19.658Z,98043.31
2023-05-11T04:23:21.926Z,98046.06
2023-05-11T04:28:27.667Z,98045.66
2023-05-11T04:33:30.596Z,98043.47
2023-05-11T04:38:34.088Z,98046.69
2023-05-11T04:43:36.576Z,98042.94
2023-05-11T04:48:38.436Z,98047.81
2023-05-11T04:53:40.681Z,98045.91
2023-05-11T04:58:42.909Z,98039.91
2023-05-11T05:03:48.655Z,98050.19
2023-05-11T05:08:50.822Z,98042.38
2023-05-11T05:13:54.945Z,98045.66
2023-05-11T05:18:57.450Z,98054.53
2023-05-11T05:23:59.825Z,98055.78
2023-05-11T05:29:01.749Z,98057.03
2023-05-11T05:34:04.723Z,98052.84
2023-05-11T05:39:12.029Z,98056.50
2023-05-11T05:44:15.165Z,98059.16
2023-05-11T05:49:17.710Z,98065.84
2023-05-11T05:54:19.621Z,98075.28
2023-05-11T05:59:23.590Z,98069.66
2023-05-11T06:04:30.509Z,98067.25
2023-05-11T06:09:32.424Z,98072.09
2023-05-11T06:14:34.356Z,98072.91
2023-05-11T06:19:38.850Z,98075.50
2023-05-11T06:24:40.953Z,98071.28
2023-05-11T06:29:44.644Z,98072.09
2023-05-11T06:34:46.943Z,98065.22
2023-05-11T06:39:49.809Z,98072.06
2023-05-11T06:44:52.014Z,98069.63
2023-05-11T06:49:54.428Z,98076.06
2023-05-11T06:54:56.729Z,98071.97
2023-05-11T06:59:58.775Z,98068.50
2023-05-11T07:05:00.728Z,98068.63
2023-05-11T07:10:02.818Z,98072.59
2023-05-11T07:15:05.005Z,98072.53
2023-05-11T07:20:08.099Z,98068.81
2023-05-11T07:25:10.199Z,98064.91
2023-05-11T07:30:12.582Z,98072.88
2023-05-11T07:35:17.620Z,98078.28
2023-05-11T07:40:19.936Z,98081.13
2023-05-11T07:45:22.423Z,98083.44
2023-05-11T07:50:24.972Z,98078.09
2023-05-11T07:55:30.163Z,98080.00
2023-05-11T08:00:31.982Z,98084.34
2023-05-11T08:05:37.535Z,98089.38
2023-05-11T08:10:39.866Z,98087.97
2023-05-11T08:15:41.726Z,98092.59
2023-05-11T08:20:43.725Z,98094.50
2023-05-11T08:25:52.794Z,98088.94
2023-05-11T08:30:58.608Z,98086.22
2023-05-11T08:36:00.643Z,98092.22
2023-05-11T08:41:03.382Z,98094.09
2023-05-11T08:46:09.256Z,98094.91
2023-05-11T08:51:11.276Z,98089.25
2023-05-11T08:56:13.653Z,98099.69
2023-05-11T09:01:23.586Z,98090.69
2023-05-11T09:06:27.230Z,98087.09
2023-05-11T09:11:30.686Z,98090.34
2023-05-11T09:16:37.303Z,98087.50
2023-05-11T09:21:39.710Z,98085.22
2023-05-11T09:26:41.594Z,98085.22
2023-05-11T09:31:45.282Z,98086.72
2023-05-11T09:36:54.309Z,98085.38
2023-05-11T09:42:19.812Z,98083.22
2023-05-11T09:47:24.750Z,98080.13
2023-05-11T09:52:27.106Z,98077.03
2023-05-11T09:57:31.648Z,98083.59
2023-05-11T10:02:34.601Z,98081.75
2023-05-11T10:07:37.507Z,98075.44
2023-05-11T10:12:40.507Z,98069.97
2023-05-11T10:17:46.337Z,98072.25
2023-05-11T10:22:50.836Z,98084.16
2023-05-11T10:27:55.095Z,98090.81
2023-05-11T10:32:57.656Z,98081.88
2023-05-11T10:38:01.219Z,98073.59
2023-05-11T10:43:06.269Z,98079.09
2023-05-11T10:48:27.132Z,98074.63
2023-05-11T10:53:38.056Z,98084.25
2023-05-11T10:59:09.746Z,98080.81
2023-05-11T11:04:13.783Z,98083.69
2023-05-11T11:09:16.583Z,98081.16
2023-05-11T11:14:19.394Z,98080.94
2023-05-11T11:19:30.414Z,98080.59
2023-05-11T11:24:38.543Z,98084.25
2023-05-11T11:29:40.865Z,98086.31
2023-05-11T11:34:44.204Z,98083.19
2023-05-11T11:39:50.781Z,98084.56
2023-05-11T11:44:52.651Z,98088.50
2023-05-11T11:49:55.522Z,98084.72
2023-05-11T11:55:02.444Z,98094.91
2023-05-11T12:00:11.483Z,98093.56
2023-05-11T12:05:19.120Z,98090.59
2023-05-11T12:10:23.272Z,98094.47
2023-05-11T12:15:31.466Z,98094.00
2023-05-11T12:20:33.391Z,98088.47
2023-05-11T12:25:35.612Z,98100.16
2023-05-11T12:31:00.606Z,98103.34
2023-05-11T12:36:02.889Z,98107.81
2023-05-11T12:41:06.342Z,98101.41
2023-05-11T12:46:08.360Z,98103.56
2023-05-11T12:51:10.592Z,98116.81
2023-05-11T12:56:12.578Z,98106.53
2023-05-11T13:01:14.461Z,98108.69
2023-05-11T13:06:20.851Z,98105.63
2023-05-11T13:11:27.093Z,98100.47
2023-05-11T13:16:31.153Z,98096.94
2023-05-11T13:21:33.723Z,98092.47
2023-05-11T13:26:35.701Z,98092.59
2023-05-11T13:31:48.279Z,98095.34
2023-05-11T13:36:50.906Z,98086.22
2023-05-11T13:41:55.637Z,98083.13
2023-05-11T13:46:57.947Z,98081.28
2023-05-11T13:52:00.661Z,98079.28
2023-05-11T13:57:03.114Z,98068.13
2023-05-11T14:02:05.580Z,98076.72
2023-05-11T14:07:08.748Z,98069.13
2023-05-11T14:12:10.697Z,98073.38
2023-05-11T14:17:13.727Z,98071.81
2023-05-11T14:22:15.953Z,98072.41
2023-05-11T14:27:18.032Z,98063.13
2023-05-11T14:32:21.318Z,98062.56
2023-05-11T14:37:23.328Z,98067.13
2023-05-11T14:42:25.782Z,98051.63
2023-05-11T14:47:27.845Z,98057.44
2023-05-11T14:52:31.252Z,98062.06
2023-05-11T14:57:33.397Z,98062.09
2023-05-11T15:02:35.368Z,98065.22
2023-05-11T15:07:38.787Z,98070.19
2023-05-11T15:12:40.706Z,98073.84
2023-05-11T15:17:42.571Z,98080.50
2023-05-11T15:22:45.035Z,98087.03
2023-05-11T15:27:47.527Z,98083.78
2023-05-11T15:32:49.487Z,98084.81
2023-05-11T15:37:51.545Z,98093.09
2023-05-11T15:42:53.773Z,98089.78
2023-05-11T15:47:55.691Z,98089.66
2023-05-11T15:52:57.508Z,98092.72
2023-05-11T15:57:59.396Z,98091.94
2023-05-11T16:03:05.865Z,98095.97
2023-05-11T16:08:11.374Z,98093.69
2023-05-11T16:13:13.447Z,98098.94
2023-05-11T16:18:16.798Z,98101.25
2023-05-11T16:23:18.707Z,98105.56
2023-05-11T16:28:20.591Z,98107.41
2023-05-11T16:33:22.584Z,98101.31
2023-05-11T16:38:24.492Z,98101.19
2023-05-11T16:43:26.441Z,98101.44
2023-05-11T16:48:28.500Z,98105.19
2023-05-11T16:53:30.431Z,98110.22
2023-05-11T16:58:32.575Z,98101.06
2023-05-11T17:03:35.161Z,98110.09
2023-05-11T17:08:39.143Z,98119.69
2023-05-11T17:13:41.190Z,98123.34
2023-05-11T17:18:43.146Z,98126.44
2023-05-11T17:23:46.215Z,98127.31
2023-05-11T17:28:51.506Z,98129.25
2023-05-11T17:33:53.553Z,98139.66
2023-05-11T17:38:55.795Z,98138.94
2023-05-11T17:43:57.900Z,98143.22
2023-05-11T17:49:01.421Z,98146.75
2023-05-11T17:54:03.589Z,98152.09
2023-05-11T17:59:05.942Z,98162.47
2023-05-11T18:04:08.081Z,98164.38
2023-05-11T18:09:12.504Z,98173.16
2023-05-11T18:14:14.413Z,98176.22
2023-05-11T18:19:18.190Z,98175.03
2023-05-11T18:24:20.348Z,98180.75
2023-05-11T18:29:23.176Z,98194.31
2023-05-11T18:34:25.071Z,98192.56
2023-05-11T18:39:27.086Z,98201.31
2023-05-11T18:44:29.372Z,98205.41
2023-05-11T18:49:31.418Z,98211.09
2023-05-11T18:54:34.225Z,98213.56
2023-05-11T18:59:36.077Z,98218.66
2023-05-11T19:04:38.013Z,98223.78
2023-05-11T19:09:39.898Z,98230.84
2023-05-11T19:14:41.862Z,98236.31
2023-05-11T19:19:43.669Z,98239.97
2023-05-11T19:24:45.499Z,98244.03
2023-05-11T19:29:51.178Z,98255.56
2023-05-11T19:34:54.115Z,98252.53
2023-05-11T19:40:11.165Z,98254.00
2023-05-11T19:45:18.107Z,98246.53
2023-05-11T19:50:22.572Z,98250.38
2023-05-11T19:55:26.172Z,98258.69
2023-05-11T20:00:28.228Z,98258.94
2023-05-11T20:05:31.134Z,98257.19
2023-05-11T20:10:33.577Z,98262.25
2023-05-11T20:15:35.590Z,98254.22
2023-05-11T20:20:37.444Z,98254.84
2023-05-11T20:25:43.723Z,98255.47
2023-05-11T20:30:45.680Z,98248.44
2023-05-11T20:35:47.693Z,98255.50
2023-05-11T20:40:49.623Z,98258.34
2023-05-11T20:45:52.199Z,98262.78
2023-05-11T20:50:55.803Z,98265.63
2023-05-11T20:55:57.788Z,98265.84
2023-05-11T21:01:02.647Z,98259.78
2023-05-11T21:06:05.849Z,98268.06
2023-05-11T21:11:07.702Z,98265.66
2023-05-11T21:16:09.673Z,98252.53
2023-05-11T21:21:11.858Z,98259.41
2023-05-11T21:26:15.213Z,98259.00
2023-05-11T21:31:17.588Z,98264.06
2023-05-11T21:36:19.684Z,98258.66
2023-05-11T21:41:21.484Z,98255.84
2023-05-11T21:46:23.770Z,98259.69
2023-05-11T21:51:25.588Z,98265.34
2023-05-11T21:56:27.382Z,98265.78
2023-05-11T22:01:29.222Z,98263.75
2023-05-11T22:06:31.594Z,98268.59
2023-05-11T22:11:37.890Z,98266.59
2023-05-11T22:16:39.847Z,98269.22
2023-05-11T22:21:41.764Z,98266.59
2023-05-11T22:26:44.706Z,98258.13
2023-05-11T22:31:46.700Z,98263.38
2023-05-11T22:36:48.594Z,98270.63
2023-05-11T22:41:50.673Z,98269.03
2023-05-11T22:46:52.736Z,98277.09
2023-05-11T22:51:58.742Z,98265.22
2023-05-11T22:57:03.722Z,98263.59
2023-05-11T23:02:05.750Z,98270.66
2023-05-11T23:07:07.970Z,98276.09
2023-05-11T23:12:10.847Z,98270.66
2023-05-11T23:17:13.379Z,98258.78
2023-05-11T23:22:15.248Z,98259.19
2023-05-11T23:27:17.314Z,98262.00
2023-05-11T23:32:19.126Z,98263.03
2023-05-11T23:37:22.329Z,98256.56
2023-05-11T23:42:24.158Z,98252.75
2023-05-11T23:47:27.138Z,98247.50
2023-05-11T23:52:29.827Z,98253.16
2023-05-11T23:57:32.245Z,98246.91
